createdAt,value
2019-03-04T00:01:47.449Z,97684.81
2019-03-04T00:04:18.078Z,97692.02
2019-03-04T00:06:47.888Z,97692.92
2019-03-04T00:09:17.086Z,97688.88
2019-03-04T00:11:46.220Z,97681.08
2019-03-04T00:14:15.679Z,97674.78
2019-03-04T00:16:46.206Z,97662.79
2019-03-04T00:19:15.414Z,97659.08
2019-03-04T00:21:49.315Z,97653.62
2019-03-04T00:24:19.085Z,97641.92
2019-03-04T00:26:48.776Z,97642.26
2019-03-04T00:29:18.599Z,97638.48
2019-03-04T00:31:51.091Z,97637.29
2019-03-04T00:34:22.113Z,97624.82
2019-03-04T00:36:53.103Z,97613.70
2019-03-04T00:39:23.394Z,97600.31
2019-03-04T00:41:53.447Z,97591.55
2019-03-04T00:44:22.905Z,97607.78
2019-03-04T00:46:52.817Z,97596.35
2019-03-04T00:49:23.058Z,97594.88
2019-03-04T00:51:52.514Z,97582.61
2019-03-04T00:54:23.438Z,97572.77
2019-03-04T00:56:52.900Z,97566.15
2019-03-04T00:59:22.666Z,97575.42
2019-03-04T01:01:53.199Z,97559.42
2019-03-04T01:04:22.661Z,97561.44
2019-03-04T01:06:53.356Z,97548.10
2019-03-04T01:09:27.499Z,97550.89
2019-03-04T01:11:57.513Z,97546.09
2019-03-04T01:14:31.129Z,97551.02
2019-03-04T01:17:00.317Z,97553.54
2019-03-04T01:19:30.291Z,97544.20
2019-03-04T01:22:04.742Z,97541.61
2019-03-04T01:24:36.084Z,97560.09
2019-03-04T01:27:06.126Z,97549.63
2019-03-04T01:29:35.945Z,97556.25
2019-03-04T01:32:06.021Z,97543.08
2019-03-04T01:34:36.529Z,97549.00
2019-03-04T01:37:07.557Z,97527.32
2019-03-04T01:39:37.011Z,97540.70
2019-03-04T01:42:07.252Z,97524.19
2019-03-04T01:44:37.223Z,97541.53
2019-03-04T01:47:07.945Z,97513.26
2019-03-04T01:49:37.409Z,97513.30
2019-03-04T01:52:12.953Z,97510.17
2019-03-04T01:54:42.874Z,97491.50
2019-03-04T01:57:12.976Z,97485.62
2019-03-04T01:59:43.152Z,97484.32
2019-03-04T02:02:18.298Z,97494.42
2019-03-04T02:04:53.925Z,97497.25
2019-03-04T02:07:23.761Z,97497.66
2019-03-04T02:09:53.953Z,97483.54
2019-03-04T02:12:23.977Z,97468.52
2019-03-04T02:14:53.952Z,97471.84
2019-03-04T02:17:23.661Z,97459.25
2019-03-04T02:19:53.361Z,97462.80
2019-03-04T02:22:27.461Z,97459.55
2019-03-04T02:24:57.693Z,97470.89
2019-03-04T02:27:28.569Z,97458.30
2019-03-04T02:29:58.241Z,97454.05
2019-03-04T02:32:29.020Z,97439.48
2019-03-04T02:35:00.876Z,97439.23
2019-03-04T02:37:31.441Z,97441.05
2019-03-04T02:40:04.673Z,97439.34
2019-03-04T02:42:33.868Z,97432.75
2019-03-04T02:45:04.016Z,97433.53
2019-03-04T02:47:33.468Z,97431.03
2019-03-04T02:50:02.905Z,97422.51
2019-03-04T02:52:32.066Z,97414.42
2019-03-04T02:55:03.274Z,97417.16
2019-03-04T02:57:35.235Z,97400.93
2019-03-04T03:00:08.570Z,97394.80
2019-03-04T03:02:38.007Z,97394.37
2019-03-04T03:05:08.667Z,97390.95
2019-03-04T03:07:40.024Z,97380.83
2019-03-04T03:10:13.484Z,97392.52
2019-03-04T03:12:42.642Z,97386.87
2019-03-04T03:15:13.832Z,97385.80
2019-03-04T03:17:43.506Z,97381.78
2019-03-04T03:20:13.286Z,97393.66
2019-03-04T03:22:45.353Z,97376.35
2019-03-04T03:25:14.858Z,97376.66
2019-03-04T03:27:44.278Z,97365.91
2019-03-04T03:30:14.329Z,97340.33
2019-03-04T03:32:45.647Z,97332.46
2019-03-04T03:35:15.176Z,97345.66
2019-03-04T03:37:44.324Z,97337.27
2019-03-04T03:40:13.580Z,97327.44
2019-03-04T03:42:42.993Z,97321.95
2019-03-04T03:45:12.284Z,97314.89
2019-03-04T03:47:42.756Z,97299.60
2019-03-04T03:50:13.096Z,97309.27
2019-03-04T03:52:43.068Z,97289.10
2019-03-04T03:55:15.448Z,97279.16
2019-03-04T03:57:45.420Z,97265.47
2019-03-04T04:00:17.148Z,97269.29
2019-03-04T04:02:47.008Z,97262.95
2019-03-04T04:05:21.297Z,97260.59
2019-03-04T04:07:53.841Z,97264.76
2019-03-04T04:10:26.290Z,97259.56
2019-03-04T04:12:55.486Z,97261.74
2019-03-04T04:15:25.231Z,97259.23
2019-03-04T04:17:54.794Z,97251.95
2019-03-04T04:20:24.232Z,97253.28
2019-03-04T04:22:54.646Z,97246.02
2019-03-04T04:25:24.583Z,97237.23
2019-03-04T04:27:57.420Z,97230.76
2019-03-04T04:30:27.220Z,97220.72
2019-03-04T04:32:58.697Z,97219.02
2019-03-04T04:35:30.523Z,97209.58
2019-03-04T04:38:00.883Z,97209.73
2019-03-04T04:40:30.051Z,97217.84
2019-03-04T04:43:00.849Z,97214.71
2019-03-04T04:45:30.260Z,97198.09
2019-03-04T04:48:03.036Z,97187.83
2019-03-04T04:50:35.160Z,97193.34
2019-03-04T04:53:12.111Z,97191.50
2019-03-04T04:55:41.825Z,97182.50
2019-03-04T04:58:13.531Z,97181.27
2019-03-04T05:00:45.307Z,97178.45
2019-03-04T05:03:14.780Z,97176.48
2019-03-04T05:05:46.267Z,97171.39
2019-03-04T05:08:16.466Z,97176.52
2019-03-04T05:10:51.201Z,97162.35
2019-03-04T05:13:20.904Z,97138.17
2019-03-04T05:15:53.231Z,97139.68
2019-03-04T05:18:24.487Z,97138.44
2019-03-04T05:20:54.016Z,97132.96
2019-03-04T05:23:27.894Z,97110.78
2019-03-04T05:25:59.931Z,97102.19
2019-03-04T05:28:35.079Z,97087.59
2019-03-04T05:31:08.377Z,97078.58
2019-03-04T05:33:38.876Z,97060.88
2019-03-04T05:36:08.309Z,97067.63
2019-03-04T05:38:38.124Z,97034.19
2019-03-04T05:41:11.102Z,97043.87
2019-03-04T05:43:40.864Z,97024.08
2019-03-04T05:46:10.529Z,97022.44
2019-03-04T05:48:41.521Z,97014.00
2019-03-04T05:51:12.883Z,97000.66
2019-03-04T05:53:44.465Z,96981.52
2019-03-04T05:56:13.976Z,96986.14
2019-03-04T05:58:43.460Z,96964.45
2019-03-04T06:01:27.818Z,96958.58
2019-03-04T06:04:03.055Z,96960.06
2019-03-04T06:06:54.044Z,96978.36
2019-03-04T06:09:25.762Z,96989.98
2019-03-04T06:11:55.610Z,97019.66
2019-03-04T06:14:27.868Z,97033.01
2019-03-04T06:17:00.299Z,97031.78
2019-03-04T06:19:29.828Z,97027.10
2019-03-04T06:22:00.125Z,97030.06
2019-03-04T06:24:30.585Z,97018.25
2019-03-04T06:27:00.175Z,97020.41
2019-03-04T06:29:30.813Z,97015.23
2019-03-04T06:32:00.196Z,96984.38
2019-03-04T06:34:30.133Z,96950.49
2019-03-04T06:37:04.971Z,96925.17
2019-03-04T06:39:36.236Z,96892.88
2019-03-04T06:42:07.005Z,96883.02
2019-03-04T06:44:39.424Z,96850.98
2019-03-04T06:47:09.117Z,96824.86
2019-03-04T06:49:38.403Z,96850.85
2019-03-04T06:52:07.605Z,96843.73
2019-03-04T06:55:08.570Z,96852.56
2019-03-04T06:57:42.872Z,96885.30
2019-03-04T07:00:38.179Z,96911.95
2019-03-04T07:03:22.737Z,96908.41
2019-03-04T07:05:53.414Z,96890.45
2019-03-04T07:09:11.039Z,96848.67
2019-03-04T07:11:48.258Z,96793.84
2019-03-04T07:14:17.801Z,96798.34
2019-03-04T07:16:48.230Z,96829.16
2019-03-04T07:19:36.723Z,96858.94
2019-03-04T07:22:11.038Z,96879.80
2019-03-04T07:24:40.061Z,96842.83
2019-03-04T07:27:11.420Z,96869.08
2019-03-04T07:29:41.017Z,96850.41
2019-03-04T07:32:10.887Z,96816.30
2019-03-04T07:34:40.631Z,96847.17
2019-03-04T07:37:09.826Z,96840.75
2019-03-04T07:39:39.283Z,96844.86
2019-03-04T07:42:08.443Z,96814.94
2019-03-04T07:44:41.758Z,96834.42
2019-03-04T07:47:11.192Z,96832.31
2019-03-04T07:49:42.847Z,96871.34
2019-03-04T07:52:12.927Z,96840.43
2019-03-04T07:54:42.131Z,96859.30
2019-03-04T07:57:14.748Z,96848.25
2019-03-04T07:59:48.618Z,96855.05
2019-03-04T08:02:18.373Z,96805.91
2019-03-04T08:04:47.568Z,96779.77
2019-03-04T08:07:40.358Z,96797.98
2019-03-04T08:10:57.134Z,96774.31
2019-03-04T08:13:38.128Z,96739.19
2019-03-04T08:16:08.183Z,96778.75
2019-03-04T08:18:38.374Z,96763.38
2019-03-04T08:21:09.090Z,96784.91
2019-03-04T08:23:38.546Z,96823.42
2019-03-04T08:26:09.615Z,96837.86
2019-03-04T08:28:38.840Z,96877.14
2019-03-04T08:31:09.167Z,96887.91
2019-03-04T08:33:39.198Z,96864.89
2019-03-04T08:36:08.923Z,96867.78
2019-03-04T08:38:38.229Z,96887.59
2019-03-04T08:41:07.468Z,96929.00
2019-03-04T08:43:38.075Z,96925.44
2019-03-04T08:46:08.368Z,96953.28
2019-03-04T08:48:37.900Z,96974.03
2019-03-04T08:51:07.197Z,96978.90
2019-03-04T08:53:36.342Z,97006.93
2019-03-04T08:56:06.348Z,97005.03
2019-03-04T08:58:35.826Z,97012.67
2019-03-04T09:01:05.032Z,97047.22
2019-03-04T09:03:34.676Z,97032.45
2019-03-04T09:06:04.436Z,97050.05
2019-03-04T09:08:41.376Z,97041.04
2019-03-04T09:11:10.833Z,97040.20
2019-03-04T09:13:40.759Z,97001.80
2019-03-04T09:16:12.050Z,97020.33
2019-03-04T09:18:41.447Z,97020.99
2019-03-04T09:21:11.119Z,97022.94
2019-03-04T09:23:40.315Z,97025.47
2019-03-04T09:26:11.050Z,97039.88
2019-03-04T09:28:41.000Z,97033.05
2019-03-04T09:31:10.428Z,97021.80
2019-03-04T09:33:39.700Z,97024.88
2019-03-04T09:36:08.905Z,97011.88
2019-03-04T09:38:38.097Z,97042.63
2019-03-04T09:41:07.581Z,97030.90
2019-03-04T09:43:36.815Z,97039.11
2019-03-04T09:46:07.597Z,97048.05
2019-03-04T09:48:36.779Z,97037.64
2019-03-04T09:51:24.058Z,97037.70
2019-03-04T09:53:47.642Z,97025.41
2019-03-04T09:56:17.434Z,97026.41
2019-03-04T09:58:48.906Z,97031.75
2019-03-04T10:01:28.207Z,97028.20
2019-03-04T10:04:40.483Z,97020.59
2019-03-04T10:07:51.271Z,97015.65
2019-03-04T10:11:13.849Z,97011.41
2019-03-04T10:14:26.858Z,96998.65
2019-03-04T10:17:42.043Z,97012.36
2019-03-04T10:21:02.441Z,96997.27
2019-03-04T10:23:53.892Z,96985.58
2019-03-04T10:27:01.258Z,96991.00
2019-03-04T10:30:11.838Z,96965.45
2019-03-04T10:33:20.197Z,96968.27
2019-03-04T10:36:32.554Z,96950.95
2019-03-04T10:39:40.106Z,96944.98
2019-03-04T10:42:35.507Z,96918.89
2019-03-04T10:45:41.606Z,96945.11
2019-03-04T10:48:11.448Z,96960.03
2019-03-04T10:50:40.674Z,96927.34
2019-03-04T10:53:10.162Z,96962.63
2019-03-04T10:55:42.319Z,96967.91
2019-03-04T10:58:10.253Z,96913.97
2019-03-04T11:00:41.131Z,96925.84
2019-03-04T11:03:12.614Z,96914.59
2019-03-04T11:05:52.028Z,96907.63
2019-03-04T11:08:21.669Z,96899.14
2019-03-04T11:10:51.268Z,96915.25
2019-03-04T11:13:20.678Z,96922.41
2019-03-04T11:15:50.087Z,96933.52
2019-03-04T11:18:19.765Z,96926.52
2019-03-04T11:20:51.831Z,96917.41
2019-03-04T11:23:21.099Z,96927.01
2019-03-04T11:25:50.566Z,96919.02
2019-03-04T11:28:19.752Z,96919.61
2019-03-04T11:30:48.986Z,96881.33
2019-03-04T11:33:18.166Z,96906.16
2019-03-04T11:35:47.694Z,96933.96
2019-03-04T11:38:44.698Z,96927.35
2019-03-04T11:41:17.025Z,96913.32
2019-03-04T11:43:46.196Z,96902.06
2019-03-04T11:46:16.786Z,96904.00
2019-03-04T11:48:47.358Z,96913.63
2019-03-04T11:51:16.899Z,96902.38
2019-03-04T11:53:46.099Z,96913.02
2019-03-04T11:56:17.759Z,96912.73
2019-03-04T11:58:48.022Z,96948.00
2019-03-04T12:01:26.086Z,96929.58
2019-03-04T12:03:56.050Z,96932.33
2019-03-04T12:06:25.530Z,96901.63
2019-03-04T12:08:54.689Z,96911.88
2019-03-04T12:11:23.878Z,96925.30
2019-03-04T12:13:53.597Z,96960.84
2019-03-04T12:16:22.800Z,96913.66
2019-03-04T12:18:53.707Z,96901.56
2019-03-04T12:21:25.419Z,96863.48
2019-03-04T12:23:54.592Z,96862.75
2019-03-04T12:26:23.805Z,96864.17
2019-03-04T12:28:56.545Z,96906.47
2019-03-04T12:31:29.552Z,96867.75
2019-03-04T12:33:58.718Z,96896.61
2019-03-04T12:36:28.489Z,96876.74
2019-03-04T12:39:02.715Z,96845.39
2019-03-04T12:41:32.717Z,96882.75
2019-03-04T12:44:02.742Z,96843.65
2019-03-04T12:46:32.973Z,96841.66
2019-03-04T12:49:02.956Z,96868.62
2019-03-04T12:51:33.860Z,96867.18
2019-03-04T12:54:03.334Z,96883.75
2019-03-04T12:56:33.611Z,96882.82
2019-03-04T12:59:03.506Z,96924.45
2019-03-04T13:01:33.212Z,96892.38
2019-03-04T13:04:04.429Z,96883.47
2019-03-04T13:06:33.587Z,96893.84
2019-03-04T13:09:13.861Z,96914.42
2019-03-04T13:11:37.986Z,96904.58
2019-03-04T13:14:07.460Z,96931.30
2019-03-04T13:16:36.814Z,96913.74
2019-03-04T13:19:06.026Z,96907.85
2019-03-04T13:21:35.211Z,96938.59
2019-03-04T13:24:04.895Z,96889.23
2019-03-04T13:26:34.763Z,96907.20
2019-03-04T13:29:05.289Z,96906.99
2019-03-04T13:31:37.085Z,96900.23
2019-03-04T13:34:09.021Z,96922.26
2019-03-04T13:36:39.150Z,96939.38
2019-03-04T13:39:09.290Z,96909.45
2019-03-04T13:41:41.142Z,96920.28
2019-03-04T13:44:10.711Z,96897.02
2019-03-04T13:46:43.170Z,96911.27
2019-03-04T13:49:13.271Z,96917.23
2019-03-04T13:51:44.050Z,96920.39
2019-03-04T13:54:14.049Z,96928.66
2019-03-04T13:56:43.482Z,96949.20
2019-03-04T13:59:13.007Z,96933.16
2019-03-04T14:01:45.107Z,96925.94
2019-03-04T14:04:14.272Z,96913.42
2019-03-04T14:06:43.495Z,96954.34
2019-03-04T14:09:14.647Z,96959.73
2019-03-04T14:11:43.847Z,96920.70
2019-03-04T14:14:13.501Z,96943.12
2019-03-04T14:16:43.446Z,96985.95
2019-03-04T14:19:15.027Z,96933.68
2019-03-04T14:21:46.134Z,96933.44
2019-03-04T14:24:17.589Z,96954.92
2019-03-04T14:26:47.210Z,96993.88
2019-03-04T14:29:18.455Z,97081.52
2019-03-04T14:31:47.661Z,97142.97
2019-03-04T14:34:17.415Z,97138.51
2019-03-04T14:36:46.769Z,97140.42
2019-03-04T14:39:17.184Z,97144.40
2019-03-04T14:41:46.426Z,97138.68
2019-03-04T14:44:16.264Z,97162.20
2019-03-04T14:46:45.841Z,97165.06
2019-03-04T14:49:15.145Z,97150.87
2019-03-04T14:51:44.622Z,97151.54
2019-03-04T14:54:14.209Z,97158.39
2019-03-04T14:56:43.856Z,97150.79
2019-03-04T14:59:15.033Z,97160.35
2019-03-04T15:01:44.407Z,97163.15
2019-03-04T15:04:14.919Z,97172.59
2019-03-04T15:06:45.739Z,97173.99
2019-03-04T15:09:17.777Z,97182.02
2019-03-04T15:11:47.559Z,97180.82
2019-03-04T15:14:16.962Z,97188.34
2019-03-04T15:16:50.086Z,97202.22
2019-03-04T15:19:19.373Z,97209.13
2019-03-04T15:21:49.271Z,97207.48
2019-03-04T15:24:18.846Z,97221.81
2019-03-04T15:26:49.960Z,97229.55
2019-03-04T15:29:23.499Z,97233.14
2019-03-04T15:32:18.755Z,97246.89
2019-03-04T15:34:48.908Z,97255.38
2019-03-04T15:37:18.703Z,97266.75
2019-03-04T15:39:48.647Z,97264.95
2019-03-04T15:42:19.048Z,97262.44
2019-03-04T15:44:50.093Z,97255.63
2019-03-04T15:47:20.804Z,97267.59
2019-03-04T15:49:49.997Z,97271.89
2019-03-04T15:52:19.478Z,97277.12
2019-03-04T15:54:48.655Z,97270.09
2019-03-04T15:57:18.080Z,97280.84
2019-03-04T15:59:47.281Z,97276.79
2019-03-04T16:02:16.856Z,97274.39
2019-03-04T16:04:46.044Z,97291.02
2019-03-04T16:07:15.873Z,97279.05
2019-03-04T16:09:45.052Z,97291.38
2019-03-04T16:12:18.253Z,97283.25
2019-03-04T16:14:47.470Z,97296.38
2019-03-04T16:17:16.904Z,97301.66
2019-03-04T16:19:46.364Z,97310.23
2019-03-04T16:22:15.523Z,97306.69
2019-03-04T16:24:44.698Z,97310.37
2019-03-04T16:27:15.477Z,97311.34
2019-03-04T16:29:45.001Z,97317.31
2019-03-04T16:32:16.518Z,97335.49
2019-03-04T16:34:47.429Z,97340.16
2019-03-04T16:37:16.583Z,97340.03
2019-03-04T16:39:46.277Z,97337.27
2019-03-04T16:42:15.772Z,97341.45
2019-03-04T16:44:45.998Z,97362.87
2019-03-04T16:47:15.160Z,97357.95
2019-03-04T16:49:45.644Z,97366.56
2019-03-04T16:52:15.531Z,97370.86
2019-03-04T16:54:45.474Z,97370.65
2019-03-04T16:57:14.849Z,97385.80
2019-03-04T16:59:43.998Z,97391.19
2019-03-04T17:02:13.403Z,97400.48
2019-03-04T17:04:43.307Z,97398.45
2019-03-04T17:07:15.836Z,97389.84
2019-03-04T17:09:45.844Z,97396.89
2019-03-04T17:12:20.638Z,97394.72
2019-03-04T17:14:52.959Z,97395.22
2019-03-04T17:17:22.616Z,97407.59
2019-03-04T17:19:52.922Z,97421.96
2019-03-04T17:22:23.323Z,97412.61
2019-03-04T17:24:53.194Z,97415.13
2019-03-04T17:27:22.484Z,97450.24
2019-03-04T17:29:52.022Z,97441.52
2019-03-04T17:32:21.251Z,97453.08
2019-03-04T17:34:50.499Z,97448.37
2019-03-04T17:37:20.464Z,97449.92
2019-03-04T17:39:52.317Z,97459.59
2019-03-04T17:42:22.050Z,97470.55
2019-03-04T17:44:53.294Z,97479.97
2019-03-04T17:47:22.778Z,97480.77
2019-03-04T17:49:52.301Z,97488.33
2019-03-04T17:52:22.715Z,97496.72
2019-03-04T17:54:51.990Z,97503.66
2019-03-04T17:57:21.760Z,97514.97
2019-03-04T17:59:52.424Z,97510.09
2019-03-04T18:02:22.432Z,97526.69
2019-03-04T18:04:51.592Z,97519.76
2019-03-04T18:07:21.569Z,97530.02
2019-03-04T18:09:50.729Z,97530.13
2019-03-04T18:12:19.903Z,97533.38
2019-03-04T18:14:49.064Z,97545.00
2019-03-04T18:17:18.340Z,97545.78
2019-03-04T18:19:48.319Z,97556.29
2019-03-04T18:22:18.281Z,97563.55
2019-03-04T18:24:47.562Z,97558.19
2019-03-04T18:27:42.606Z,97568.33
2019-03-04T18:30:24.359Z,97568.95
2019-03-04T18:33:17.714Z,97576.47
2019-03-04T18:36:04.418Z,97592.28
2019-03-04T18:39:06.177Z,97586.08
2019-03-04T18:41:58.185Z,97592.05
2019-03-04T18:44:58.807Z,97596.02
2019-03-04T18:48:00.789Z,97603.80
2019-03-04T18:50:29.979Z,97613.58
2019-03-04T18:53:01.041Z,97618.09
2019-03-04T18:55:30.315Z,97611.34
2019-03-04T18:57:59.533Z,97627.31
2019-03-04T19:00:30.124Z,97628.98
2019-03-04T19:03:00.804Z,97620.86
2019-03-04T19:05:30.634Z,97640.77
2019-03-04T19:08:03.742Z,97636.72
2019-03-04T19:10:33.862Z,97637.31
2019-03-04T19:13:03.021Z,97641.50
2019-03-04T19:15:33.725Z,97650.16
2019-03-04T19:18:03.880Z,97642.45
2019-03-04T19:20:33.902Z,97658.42
2019-03-04T19:23:03.960Z,97656.16
2019-03-04T19:25:33.250Z,97668.53
2019-03-04T19:28:02.444Z,97660.98
2019-03-04T19:30:32.323Z,97664.34
2019-03-04T19:33:01.860Z,97676.30
2019-03-04T19:35:40.018Z,97670.94
2019-03-04T19:38:09.198Z,97677.58
2019-03-04T19:40:38.409Z,97682.39
2019-03-04T19:43:10.006Z,97685.13
2019-03-04T19:45:41.062Z,97692.23
2019-03-04T19:48:10.546Z,97693.70
2019-03-04T19:50:40.381Z,97689.28
2019-03-04T19:53:10.499Z,97698.00
2019-03-04T19:55:40.263Z,97695.48
2019-03-04T19:58:09.450Z,97697.70
2019-03-04T20:00:39.184Z,97703.95
2019-03-04T20:03:08.389Z,97713.14
2019-03-04T20:05:43.961Z,97712.77
2019-03-04T20:08:13.867Z,97710.59
2019-03-04T20:10:43.219Z,97714.89
2019-03-04T20:13:12.547Z,97718.14
2019-03-04T20:15:41.751Z,97717.62
2019-03-04T20:18:11.024Z,97715.00
2019-03-04T20:20:42.406Z,97732.80
2019-03-04T20:23:12.319Z,97737.22
2019-03-04T20:25:41.685Z,97730.83
2019-03-04T20:28:11.858Z,97727.19
2019-03-04T20:30:41.439Z,97732.69
2019-03-04T20:33:11.395Z,97714.59
2019-03-04T20:35:40.729Z,97712.51
2019-03-04T20:38:09.943Z,97723.98
2019-03-04T20:40:39.841Z,97721.63
2019-03-04T20:43:10.341Z,97727.44
2019-03-04T20:45:39.809Z,97731.49
2019-03-04T20:48:10.832Z,97736.64
2019-03-04T20:50:42.987Z,97743.42
2019-03-04T20:53:13.563Z,97741.53
2019-03-04T20:55:43.084Z,97745.61
2019-03-04T20:58:12.270Z,97741.12
2019-03-04T21:00:42.405Z,97732.48
2019-03-04T21:03:11.685Z,97729.70
2019-03-04T21:05:40.959Z,97736.85
2019-03-04T21:08:10.678Z,97733.27
2019-03-04T21:10:39.932Z,97742.48
2019-03-04T21:13:15.091Z,97752.09
2019-03-04T21:15:45.497Z,97756.45
2019-03-04T21:18:14.684Z,97757.91
2019-03-04T21:20:45.299Z,97758.00
2019-03-04T21:23:14.600Z,97759.42
2019-03-04T21:25:50.167Z,97758.27
2019-03-04T21:28:26.621Z,97767.55
2019-03-04T21:31:32.342Z,97756.07
2019-03-04T21:34:41.357Z,97762.28
2019-03-04T21:37:23.092Z,97757.45
2019-03-04T21:39:54.981Z,97753.75
2019-03-04T21:42:50.298Z,97747.50
2019-03-04T21:45:53.452Z,97753.73
2019-03-04T21:48:37.358Z,97754.20
2019-03-04T21:51:52.727Z,97753.86
2019-03-04T21:54:21.906Z,97750.55
2019-03-04T21:57:04.514Z,97751.95
2019-03-04T21:59:34.280Z,97753.52
2019-03-04T22:02:14.074Z,97755.38
2019-03-04T22:04:45.415Z,97755.02
2019-03-04T22:07:16.457Z,97774.15
2019-03-04T22:09:46.205Z,97771.18
2019-03-04T22:12:15.894Z,97768.51
2019-03-04T22:14:47.677Z,97771.00
2019-03-04T22:17:17.966Z,97780.19
2019-03-04T22:19:47.168Z,97777.00
2019-03-04T22:22:18.612Z,97776.32
2019-03-04T22:24:48.601Z,97774.25
2019-03-04T22:27:18.933Z,97775.59
2019-03-04T22:29:51.538Z,97777.27
2019-03-04T22:32:22.358Z,97794.92
2019-03-04T22:34:51.904Z,97797.75
2019-03-04T22:37:22.321Z,97803.45
2019-03-04T22:39:51.789Z,97801.55
2019-03-04T22:42:20.982Z,97805.25
2019-03-04T22:44:50.406Z,97804.05
2019-03-04T22:47:21.472Z,97802.41
2019-03-04T22:49:51.409Z,97809.18
2019-03-04T22:52:21.398Z,97811.84
2019-03-04T22:54:50.574Z,97805.04
2019-03-04T22:57:20.102Z,97798.37
2019-03-04T22:59:49.258Z,97804.09
2019-03-04T23:02:19.647Z,97801.73
2019-03-04T23:04:53.140Z,97802.38
2019-03-04T23:07:31.579Z,97801.01
2019-03-04T23:10:38.514Z,97812.36
2019-03-04T23:13:43.850Z,97809.95
2019-03-04T23:16:16.409Z,97814.44
2019-03-04T23:18:45.606Z,97842.94
2019-03-04T23:21:16.122Z,97823.09
2019-03-04T23:23:47.418Z,97814.16
2019-03-04T23:26:16.590Z,97824.73
2019-03-04T23:28:45.814Z,97826.82
2019-03-04T23:31:15.229Z,97822.59
2019-03-04T23:33:44.458Z,97815.75
2019-03-04T23:36:13.919Z,97826.16
2019-03-04T23:38:43.127Z,97824.12
2019-03-04T23:41:14.335Z,97818.94
2019-03-04T23:43:44.284Z,97825.51
2019-03-04T23:46:14.025Z,97820.80
2019-03-04T23:48:43.983Z,97825.69
2019-03-04T23:51:13.162Z,97827.98
2019-03-04T23:53:43.144Z,97814.44
2019-03-04T23:56:12.314Z,97833.39
2019-03-04T23:58:41.775Z,97822.87
